sensor_id;sensor_type;location;lat;lon;timestamp;P1;durP1;ratioP1;P2;durP2;ratioP2
63259;SDS011;49390;51.380;0.098;2023-08-30T00:02:25;5.35;;;2.50;;
63259;SDS011;49390;51.380;0.098;2023-08-30T00:04:57;6.25;;;2.53;;
63259;SDS011;49390;51.380;0.098;2023-08-30T00:07:29;6.07;;;3.10;;
63259;SDS011;49390;51.380;0.098;2023-08-30T00:09:58;6.72;;;3.10;;
63259;SDS011;49390;51.380;0.098;2023-08-30T00:12:29;6.38;;;3.63;;
63259;SDS011;49390;51.380;0.098;2023-08-30T00:14:57;6.72;;;3.03;;
63259;SDS011;49390;51.380;0.098;2023-08-30T00:17:25;6.93;;;3.20;;
63259;SDS011;49390;51.380;0.098;2023-08-30T00:19:53;6.45;;;3.50;;
63259;SDS011;49390;51.380;0.098;2023-08-30T00:22:22;5.88;;;3.20;;
63259;SDS011;49390;51.380;0.098;2023-08-30T00:24:51;5.68;;;3.45;;
63259;SDS011;49390;51.380;0.098;2023-08-30T00:27:19;8.73;;;3.58;;
63259;SDS011;49390;51.380;0.098;2023-08-30T00:29:50;7.07;;;3.35;;
63259;SDS011;49390;51.380;0.098;2023-08-30T00:32:18;5.97;;;3.00;;
63259;SDS011;49390;51.380;0.098;2023-08-30T00:34:49;6.97;;;3.10;;
63259;SDS011;49390;51.380;0.098;2023-08-30T00:37:20;7.25;;;3.05;;
63259;SDS011;49390;51.380;0.098;2023-08-30T00:39:48;4.43;;;2.53;;
63259;SDS011;49390;51.380;0.098;2023-08-30T00:42:16;5.65;;;3.00;;
63259;SDS011;49390;51.380;0.098;2023-08-30T00:44:44;5.60;;;3.10;;
63259;SDS011;49390;51.380;0.098;2023-08-30T00:47:11;6.18;;;2.80;;
63259;SDS011;49390;51.380;0.098;2023-08-30T00:49:40;5.55;;;2.80;;
63259;SDS011;49390;51.380;0.098;2023-08-30T00:52:08;7.25;;;2.95;;
63259;SDS011;49390;51.380;0.098;2023-08-30T00:57:07;5.93;;;2.65;;
63259;SDS011;49390;51.380;0.098;2023-08-30T00:59:36;6.53;;;2.70;;
63259;SDS011;49390;51.380;0.098;2023-08-30T01:02:04;5.57;;;2.47;;
63259;SDS011;49390;51.380;0.098;2023-08-30T01:11:36;7.43;;;2.88;;
63259;SDS011;49390;51.380;0.098;2023-08-30T01:14:15;5.38;;;2.92;;
63259;SDS011;49390;51.380;0.098;2023-08-30T01:17:04;5.28;;;2.90;;
63259;SDS011;49390;51.380;0.098;2023-08-30T01:22:38;5.22;;;2.78;;
63259;SDS011;49390;51.380;0.098;2023-08-30T01:27:50;4.78;;;2.88;;
63259;SDS011;49390;51.380;0.098;2023-08-30T01:30:21;5.40;;;2.93;;
63259;SDS011;49390;51.380;0.098;2023-08-30T01:32:49;5.50;;;2.92;;
63259;SDS011;49390;51.380;0.098;2023-08-30T01:35:19;5.95;;;2.97;;
63259;SDS011;49390;51.380;0.098;2023-08-30T01:37:49;5.30;;;2.65;;
63259;SDS011;49390;51.380;0.098;2023-08-30T01:40:18;6.40;;;3.10;;
63259;SDS011;49390;51.380;0.098;2023-08-30T01:42:47;7.47;;;2.92;;
63259;SDS011;49390;51.380;0.098;2023-08-30T01:45:16;5.20;;;2.75;;
63259;SDS011;49390;51.380;0.098;2023-08-30T01:47:47;4.70;;;2.75;;
63259;SDS011;49390;51.380;0.098;2023-08-30T01:50:16;6.13;;;2.83;;
63259;SDS011;49390;51.380;0.098;2023-08-30T01:52:44;4.80;;;2.80;;
63259;SDS011;49390;51.380;0.098;2023-08-30T01:55:14;5.78;;;2.80;;
63259;SDS011;49390;51.380;0.098;2023-08-30T01:57:42;6.05;;;3.03;;
63259;SDS011;49390;51.380;0.098;2023-08-30T02:00:11;6.88;;;2.83;;
63259;SDS011;49390;51.380;0.098;2023-08-30T02:05:10;4.60;;;2.60;;
63259;SDS011;49390;51.380;0.098;2023-08-30T02:07:43;5.88;;;2.70;;
63259;SDS011;49390;51.380;0.098;2023-08-30T02:10:34;6.68;;;3.22;;
63259;SDS011;49390;51.380;0.098;2023-08-30T02:13:04;5.60;;;2.97;;
63259;SDS011;49390;51.380;0.098;2023-08-30T02:15:33;4.75;;;2.78;;
63259;SDS011;49390;51.380;0.098;2023-08-30T02:18:03;6.40;;;2.97;;
63259;SDS011;49390;51.380;0.098;2023-08-30T02:20:33;6.20;;;2.83;;
63259;SDS011;49390;51.380;0.098;2023-08-30T02:23:01;6.85;;;2.85;;
63259;SDS011;49390;51.380;0.098;2023-08-30T02:25:41;6.13;;;3.35;;
63259;SDS011;49390;51.380;0.098;2023-08-30T02:28:09;6.68;;;3.03;;
63259;SDS011;49390;51.380;0.098;2023-08-30T02:30:37;5.53;;;2.80;;
63259;SDS011;49390;51.380;0.098;2023-08-30T02:33:05;5.93;;;2.83;;
63259;SDS011;49390;51.380;0.098;2023-08-30T02:35:33;6.38;;;3.17;;
63259;SDS011;49390;51.380;0.098;2023-08-30T02:38:01;5.97;;;2.80;;
63259;SDS011;49390;51.380;0.098;2023-08-30T02:40:33;6.90;;;2.80;;
63259;SDS011;49390;51.380;0.098;2023-08-30T02:43:01;6.13;;;2.88;;
63259;SDS011;49390;51.380;0.098;2023-08-30T02:45:29;6.60;;;2.90;;
63259;SDS011;49390;51.380;0.098;2023-08-30T02:47:57;8.55;;;3.15;;
63259;SDS011;49390;51.380;0.098;2023-08-30T02:50:26;8.75;;;3.17;;
63259;SDS011;49390;51.380;0.098;2023-08-30T02:52:53;7.70;;;3.25;;
63259;SDS011;49390;51.380;0.098;2023-08-30T02:55:22;6.53;;;3.40;;
63259;SDS011;49390;51.380;0.098;2023-08-30T02:57:50;7.50;;;3.22;;
63259;SDS011;49390;51.380;0.098;2023-08-30T03:00:18;9.32;;;3.35;;
63259;SDS011;49390;51.380;0.098;2023-08-30T03:02:49;8.35;;;3.45;;
63259;SDS011;49390;51.380;0.098;2023-08-30T03:05:18;8.25;;;3.35;;
63259;SDS011;49390;51.380;0.098;2023-08-30T03:07:46;4.90;;;2.88;;
63259;SDS011;49390;51.380;0.098;2023-08-30T03:10:15;7.85;;;3.45;;
63259;SDS011;49390;51.380;0.098;2023-08-30T03:12:43;7.88;;;3.40;;
63259;SDS011;49390;51.380;0.098;2023-08-30T03:15:11;6.65;;;3.20;;
63259;SDS011;49390;51.380;0.098;2023-08-30T03:17:39;6.55;;;3.28;;
63259;SDS011;49390;51.380;0.098;2023-08-30T03:20:07;6.93;;;3.22;;
63259;SDS011;49390;51.380;0.098;2023-08-30T03:22:36;7.97;;;3.45;;
63259;SDS011;49390;51.380;0.098;2023-08-30T03:25:05;7.78;;;3.45;;
63259;SDS011;49390;51.380;0.098;2023-08-30T03:27:33;6.20;;;3.22;;
63259;SDS011;49390;51.380;0.098;2023-08-30T03:30:05;9.77;;;3.80;;
63259;SDS011;49390;51.380;0.098;2023-08-30T03:32:34;6.47;;;3.42;;
63259;SDS011;49390;51.380;0.098;2023-08-30T03:35:03;10.18;;;3.40;;
63259;SDS011;49390;51.380;0.098;2023-08-30T03:37:32;7.53;;;3.60;;
63259;SDS011;49390;51.380;0.098;2023-08-30T03:40:01;8.10;;;4.07;;
63259;SDS011;49390;51.380;0.098;2023-08-30T03:42:31;6.22;;;3.50;;
63259;SDS011;49390;51.380;0.098;2023-08-30T03:45:01;6.82;;;3.38;;
63259;SDS011;49390;51.380;0.098;2023-08-30T03:47:30;9.40;;;3.47;;
63259;SDS011;49390;51.380;0.098;2023-08-30T03:49:58;7.05;;;3.72;;
63259;SDS011;49390;51.380;0.098;2023-08-30T03:52:26;9.65;;;3.70;;
63259;SDS011;49390;51.380;0.098;2023-08-30T03:54:55;7.68;;;3.60;;
63259;SDS011;49390;51.380;0.098;2023-08-30T03:57:23;8.18;;;4.20;;
63259;SDS011;49390;51.380;0.098;2023-08-30T03:59:51;8.93;;;3.92;;
63259;SDS011;49390;51.380;0.098;2023-08-30T04:02:19;6.32;;;3.47;;
63259;SDS011;49390;51.380;0.098;2023-08-30T04:04:47;6.63;;;3.60;;
63259;SDS011;49390;51.380;0.098;2023-08-30T04:07:15;8.07;;;3.53;;
63259;SDS011;49390;51.380;0.098;2023-08-30T04:09:43;11.88;;;3.97;;
63259;SDS011;49390;51.380;0.098;2023-08-30T04:12:11;6.72;;;3.47;;
63259;SDS011;49390;51.380;0.098;2023-08-30T04:14:40;10.00;;;3.42;;
63259;SDS011;49390;51.380;0.098;2023-08-30T04:17:07;10.63;;;3.63;;
63259;SDS011;49390;51.380;0.098;2023-08-30T04:19:35;10.15;;;3.70;;
63259;SDS011;49390;51.380;0.098;2023-08-30T04:22:03;6.63;;;3.40;;
63259;SDS011;49390;51.380;0.098;2023-08-30T04:24:31;11.57;;;3.58;;
63259;SDS011;49390;51.380;0.098;2023-08-30T04:26:59;7.72;;;3.30;;
63259;SDS011;49390;51.380;0.098;2023-08-30T04:29:27;7.60;;;3.70;;
63259;SDS011;49390;51.380;0.098;2023-08-30T04:31:56;8.02;;;3.58;;
63259;SDS011;49390;51.380;0.098;2023-08-30T04:34:24;8.30;;;3.28;;
63259;SDS011;49390;51.380;0.098;2023-08-30T04:36:52;9.25;;;4.10;;
63259;SDS011;49390;51.380;0.098;2023-08-30T04:39:20;7.80;;;3.72;;
63259;SDS011;49390;51.380;0.098;2023-08-30T04:41:49;8.07;;;3.90;;
63259;SDS011;49390;51.380;0.098;2023-08-30T04:44:17;7.10;;;3.58;;
63259;SDS011;49390;51.380;0.098;2023-08-30T04:46:47;11.10;;;3.75;;
63259;SDS011;49390;51.380;0.098;2023-08-30T04:49:15;8.63;;;3.42;;
63259;SDS011;49390;51.380;0.098;2023-08-30T04:51:43;9.73;;;4.03;;
63259;SDS011;49390;51.380;0.098;2023-08-30T04:54:11;9.30;;;4.30;;
63259;SDS011;49390;51.380;0.098;2023-08-30T04:56:40;10.43;;;3.97;;
63259;SDS011;49390;51.380;0.098;2023-08-30T04:59:09;11.82;;;4.50;;
63259;SDS011;49390;51.380;0.098;2023-08-30T05:01:41;10.02;;;4.13;;
63259;SDS011;49390;51.380;0.098;2023-08-30T05:04:12;8.77;;;4.10;;
63259;SDS011;49390;51.380;0.098;2023-08-30T05:06:40;9.75;;;4.15;;
63259;SDS011;49390;51.380;0.098;2023-08-30T05:09:09;8.02;;;3.78;;
63259;SDS011;49390;51.380;0.098;2023-08-30T05:11:37;7.63;;;3.95;;
63259;SDS011;49390;51.380;0.098;2023-08-30T05:14:06;6.85;;;3.90;;
63259;SDS011;49390;51.380;0.098;2023-08-30T05:16:34;8.82;;;4.20;;
63259;SDS011;49390;51.380;0.098;2023-08-30T05:19:02;8.27;;;4.00;;
63259;SDS011;49390;51.380;0.098;2023-08-30T05:21:30;10.93;;;4.63;;
63259;SDS011;49390;51.380;0.098;2023-08-30T05:23:58;11.65;;;4.53;;
63259;SDS011;49390;51.380;0.098;2023-08-30T05:26:26;9.70;;;4.45;;
63259;SDS011;49390;51.380;0.098;2023-08-30T05:28:55;9.02;;;4.35;;
63259;SDS011;49390;51.380;0.098;2023-08-30T05:31:23;8.63;;;3.90;;
63259;SDS011;49390;51.380;0.098;2023-08-30T05:33:59;8.00;;;4.03;;
63259;SDS011;49390;51.380;0.098;2023-08-30T05:36:45;9.02;;;4.03;;
63259;SDS011;49390;51.380;0.098;2023-08-30T05:39:30;8.93;;;4.15;;
63259;SDS011;49390;51.380;0.098;2023-08-30T05:41:58;8.93;;;4.15;;
63259;SDS011;49390;51.380;0.098;2023-08-30T05:44:27;7.75;;;4.43;;
63259;SDS011;49390;51.380;0.098;2023-08-30T05:49:22;8.73;;;4.00;;
63259;SDS011;49390;51.380;0.098;2023-08-30T05:51:51;9.82;;;4.72;;
63259;SDS011;49390;51.380;0.098;2023-08-30T05:54:19;11.68;;;4.07;;
63259;SDS011;49390;51.380;0.098;2023-08-30T05:56:47;9.07;;;3.95;;
63259;SDS011;49390;51.380;0.098;2023-08-30T05:59:16;8.52;;;3.75;;
63259;SDS011;49390;51.380;0.098;2023-08-30T06:01:47;13.30;;;4.15;;
63259;SDS011;49390;51.380;0.098;2023-08-30T06:04:14;9.00;;;3.78;;
63259;SDS011;49390;51.380;0.098;2023-08-30T06:06:43;9.20;;;3.60;;
63259;SDS011;49390;51.380;0.098;2023-08-30T06:09:11;6.22;;;3.55;;
63259;SDS011;49390;51.380;0.098;2023-08-30T06:11:40;6.40;;;3.97;;
63259;SDS011;49390;51.380;0.098;2023-08-30T06:14:08;20.83;;;3.70;;
63259;SDS011;49390;51.380;0.098;2023-08-30T06:16:36;9.43;;;3.33;;
63259;SDS011;49390;51.380;0.098;2023-08-30T06:19:04;8.70;;;3.28;;
63259;SDS011;49390;51.380;0.098;2023-08-30T06:21:32;8.00;;;3.63;;
63259;SDS011;49390;51.380;0.098;2023-08-30T06:24:00;6.60;;;3.42;;
63259;SDS011;49390;51.380;0.098;2023-08-30T06:26:29;9.45;;;3.67;;
63259;SDS011;49390;51.380;0.098;2023-08-30T06:28:57;9.10;;;3.30;;
63259;SDS011;49390;51.380;0.098;2023-08-30T06:31:31;8.55;;;3.33;;
63259;SDS011;49390;51.380;0.098;2023-08-30T06:34:00;8.38;;;3.30;;
63259;SDS011;49390;51.380;0.098;2023-08-30T06:36:28;7.28;;;3.10;;
63259;SDS011;49390;51.380;0.098;2023-08-30T06:38:56;7.78;;;3.15;;
63259;SDS011;49390;51.380;0.098;2023-08-30T06:41:24;7.20;;;3.10;;
63259;SDS011;49390;51.380;0.098;2023-08-30T06:43:52;9.82;;;3.10;;
63259;SDS011;49390;51.380;0.098;2023-08-30T06:46:23;10.23;;;3.33;;
63259;SDS011;49390;51.380;0.098;2023-08-30T06:48:51;7.43;;;2.95;;
63259;SDS011;49390;51.380;0.098;2023-08-30T06:51:19;12.10;;;3.42;;
63259;SDS011;49390;51.380;0.098;2023-08-30T06:53:48;7.95;;;2.95;;
63259;SDS011;49390;51.380;0.098;2023-08-30T06:56:16;7.03;;;3.38;;
63259;SDS011;49390;51.380;0.098;2023-08-30T06:58:45;7.57;;;3.03;;
63259;SDS011;49390;51.380;0.098;2023-08-30T07:01:13;9.30;;;3.30;;
63259;SDS011;49390;51.380;0.098;2023-08-30T07:03:41;7.82;;;3.03;;
63259;SDS011;49390;51.380;0.098;2023-08-30T07:06:09;9.43;;;3.00;;
63259;SDS011;49390;51.380;0.098;2023-08-30T07:08:37;7.00;;;3.15;;
63259;SDS011;49390;51.380;0.098;2023-08-30T07:11:08;7.05;;;3.15;;
63259;SDS011;49390;51.380;0.098;2023-08-30T07:13:54;7.65;;;2.90;;
63259;SDS011;49390;51.380;0.098;2023-08-30T07:16:22;7.05;;;3.15;;
63259;SDS011;49390;51.380;0.098;2023-08-30T07:18:50;7.70;;;2.80;;
63259;SDS011;49390;51.380;0.098;2023-08-30T07:21:21;8.80;;;3.35;;
63259;SDS011;49390;51.380;0.098;2023-08-30T07:23:49;7.25;;;3.22;;
63259;SDS011;49390;51.380;0.098;2023-08-30T07:26:17;6.38;;;2.80;;
63259;SDS011;49390;51.380;0.098;2023-08-30T07:28:45;6.63;;;2.70;;
63259;SDS011;49390;51.380;0.098;2023-08-30T07:31:13;10.32;;;3.05;;
63259;SDS011;49390;51.380;0.098;2023-08-30T07:33:46;7.70;;;3.38;;
63259;SDS011;49390;51.380;0.098;2023-08-30T07:36:15;7.20;;;3.13;;
63259;SDS011;49390;51.380;0.098;2023-08-30T07:38:43;6.75;;;2.85;;
63259;SDS011;49390;51.380;0.098;2023-08-30T07:41:11;4.75;;;2.70;;
63259;SDS011;49390;51.380;0.098;2023-08-30T07:43:40;8.15;;;2.75;;
63259;SDS011;49390;51.380;0.098;2023-08-30T07:46:08;13.35;;;3.28;;
63259;SDS011;49390;51.380;0.098;2023-08-30T07:48:36;9.13;;;3.70;;
63259;SDS011;49390;51.380;0.098;2023-08-30T07:51:04;10.13;;;2.63;;
63259;SDS011;49390;51.380;0.098;2023-08-30T07:53:32;6.10;;;2.65;;
63259;SDS011;49390;51.380;0.098;2023-08-30T07:56:00;9.70;;;2.90;;
63259;SDS011;49390;51.380;0.098;2023-08-30T07:58:28;8.15;;;2.65;;
63259;SDS011;49390;51.380;0.098;2023-08-30T08:00:56;8.88;;;2.85;;
63259;SDS011;49390;51.380;0.098;2023-08-30T08:03:24;8.68;;;2.70;;
63259;SDS011;49390;51.380;0.098;2023-08-30T08:05:53;8.65;;;3.03;;
63259;SDS011;49390;51.380;0.098;2023-08-30T08:08:21;7.53;;;2.88;;
63259;SDS011;49390;51.380;0.098;2023-08-30T08:10:49;6.82;;;2.60;;
63259;SDS011;49390;51.380;0.098;2023-08-30T08:13:17;8.98;;;2.90;;
63259;SDS011;49390;51.380;0.098;2023-08-30T08:15:45;9.65;;;2.63;;
63259;SDS011;49390;51.380;0.098;2023-08-30T08:18:13;6.70;;;2.83;;
63259;SDS011;49390;51.380;0.098;2023-08-30T08:20:42;6.68;;;2.72;;
63259;SDS011;49390;51.380;0.098;2023-08-30T08:23:10;6.90;;;2.72;;
63259;SDS011;49390;51.380;0.098;2023-08-30T08:25:38;7.63;;;2.70;;
63259;SDS011;49390;51.380;0.098;2023-08-30T08:28:06;8.45;;;2.80;;
63259;SDS011;49390;51.380;0.098;2023-08-30T08:30:36;8.15;;;3.05;;
63259;SDS011;49390;51.380;0.098;2023-08-30T08:33:03;8.85;;;2.95;;
63259;SDS011;49390;51.380;0.098;2023-08-30T08:35:34;7.55;;;2.70;;
63259;SDS011;49390;51.380;0.098;2023-08-30T08:38:03;9.52;;;3.10;;
63259;SDS011;49390;51.380;0.098;2023-08-30T08:40:37;6.43;;;2.70;;
63259;SDS011;49390;51.380;0.098;2023-08-30T08:43:10;10.25;;;2.80;;
63259;SDS011;49390;51.380;0.098;2023-08-30T08:45:41;6.93;;;2.80;;
63259;SDS011;49390;51.380;0.098;2023-08-30T08:48:11;6.65;;;2.80;;
63259;SDS011;49390;51.380;0.098;2023-08-30T08:50:41;6.38;;;2.78;;
63259;SDS011;49390;51.380;0.098;2023-08-30T08:53:10;9.02;;;2.70;;
63259;SDS011;49390;51.380;0.098;2023-08-30T08:55:39;8.57;;;2.90;;
63259;SDS011;49390;51.380;0.098;2023-08-30T08:58:08;9.02;;;3.15;;
63259;SDS011;49390;51.380;0.098;2023-08-30T09:00:36;11.45;;;3.38;;
63259;SDS011;49390;51.380;0.098;2023-08-30T09:03:05;6.88;;;2.70;;
63259;SDS011;49390;51.380;0.098;2023-08-30T09:05:37;8.50;;;3.30;;
63259;SDS011;49390;51.380;0.098;2023-08-30T09:08:06;6.25;;;2.60;;
63259;SDS011;49390;51.380;0.098;2023-08-30T09:10:35;7.55;;;2.95;;
63259;SDS011;49390;51.380;0.098;2023-08-30T09:13:03;7.55;;;2.78;;
63259;SDS011;49390;51.380;0.098;2023-08-30T09:15:32;6.15;;;2.47;;
63259;SDS011;49390;51.380;0.098;2023-08-30T09:18:00;5.70;;;2.60;;
63259;SDS011;49390;51.380;0.098;2023-08-30T09:20:29;10.15;;;3.05;;
63259;SDS011;49390;51.380;0.098;2023-08-30T09:22:57;6.93;;;2.80;;
63259;SDS011;49390;51.380;0.098;2023-08-30T09:25:26;4.47;;;2.25;;
63259;SDS011;49390;51.380;0.098;2023-08-30T09:27:58;8.10;;;3.05;;
63259;SDS011;49390;51.380;0.098;2023-08-30T09:30:27;9.85;;;3.15;;
63259;SDS011;49390;51.380;0.098;2023-08-30T09:33:00;8.70;;;2.58;;
63259;SDS011;49390;51.380;0.098;2023-08-30T09:35:32;7.82;;;3.22;;
63259;SDS011;49390;51.380;0.098;2023-08-30T09:38:06;5.85;;;2.45;;
63259;SDS011;49390;51.380;0.098;2023-08-30T09:40:35;7.03;;;2.75;;
63259;SDS011;49390;51.380;0.098;2023-08-30T09:43:03;5.72;;;2.50;;
63259;SDS011;49390;51.380;0.098;2023-08-30T09:45:40;6.57;;;2.72;;
63259;SDS011;49390;51.380;0.098;2023-08-30T09:48:08;6.88;;;2.75;;
63259;SDS011;49390;51.380;0.098;2023-08-30T09:50:37;6.80;;;2.40;;
63259;SDS011;49390;51.380;0.098;2023-08-30T09:53:09;6.63;;;2.35;;
63259;SDS011;49390;51.380;0.098;2023-08-30T09:55:39;6.35;;;2.30;;
63259;SDS011;49390;51.380;0.098;2023-08-30T09:58:07;7.45;;;2.55;;
63259;SDS011;49390;51.380;0.098;2023-08-30T10:00:37;6.32;;;2.35;;
63259;SDS011;49390;51.380;0.098;2023-08-30T10:05:23;5.88;;;2.58;;
63259;SDS011;49390;51.380;0.098;2023-08-30T10:07:52;4.82;;;2.28;;
63259;SDS011;49390;51.380;0.098;2023-08-30T10:10:20;7.85;;;2.63;;
63259;SDS011;49390;51.380;0.098;2023-08-30T10:12:53;6.00;;;2.20;;
63259;SDS011;49390;51.380;0.098;2023-08-30T10:15:35;6.00;;;2.35;;
63259;SDS011;49390;51.380;0.098;2023-08-30T10:18:11;10.02;;;2.20;;
63259;SDS011;49390;51.380;0.098;2023-08-30T10:20:42;6.20;;;2.03;;
63259;SDS011;49390;51.380;0.098;2023-08-30T10:23:13;6.80;;;2.55;;
63259;SDS011;49390;51.380;0.098;2023-08-30T10:25:44;5.05;;;1.92;;
63259;SDS011;49390;51.380;0.098;2023-08-30T10:28:16;6.50;;;2.00;;
63259;SDS011;49390;51.380;0.098;2023-08-30T10:30:47;4.32;;;1.80;;
63259;SDS011;49390;51.380;0.098;2023-08-30T10:33:15;3.95;;;1.95;;
63259;SDS011;49390;51.380;0.098;2023-08-30T10:35:49;6.60;;;2.25;;
63259;SDS011;49390;51.380;0.098;2023-08-30T10:38:25;4.00;;;2.05;;
63259;SDS011;49390;51.380;0.098;2023-08-30T10:40:55;5.60;;;2.00;;
63259;SDS011;49390;51.380;0.098;2023-08-30T10:43:34;6.05;;;2.00;;
63259;SDS011;49390;51.380;0.098;2023-08-30T10:46:04;6.60;;;2.20;;
63259;SDS011;49390;51.380;0.098;2023-08-30T10:50:58;3.53;;;1.65;;
63259;SDS011;49390;51.380;0.098;2023-08-30T10:53:30;4.63;;;1.90;;
63259;SDS011;49390;51.380;0.098;2023-08-30T10:56:07;6.07;;;2.20;;
63259;SDS011;49390;51.380;0.098;2023-08-30T10:58:42;5.22;;;2.10;;
63259;SDS011;49390;51.380;0.098;2023-08-30T11:01:11;5.18;;;2.17;;
63259;SDS011;49390;51.380;0.098;2023-08-30T11:03:41;4.75;;;2.10;;
63259;SDS011;49390;51.380;0.098;2023-08-30T11:06:13;4.38;;;2.08;;
63259;SDS011;49390;51.380;0.098;2023-08-30T11:08:41;3.75;;;2.08;;
63259;SDS011;49390;51.380;0.098;2023-08-30T11:11:10;5.32;;;2.00;;
63259;SDS011;49390;51.380;0.098;2023-08-30T11:13:39;5.13;;;2.00;;
63259;SDS011;49390;51.380;0.098;2023-08-30T11:16:07;5.53;;;1.80;;
63259;SDS011;49390;51.380;0.098;2023-08-30T11:18:37;3.10;;;1.75;;
63259;SDS011;49390;51.380;0.098;2023-08-30T11:21:06;17.70;;;3.05;;
63259;SDS011;49390;51.380;0.098;2023-08-30T11:23:36;5.03;;;2.15;;
63259;SDS011;49390;51.380;0.098;2023-08-30T11:26:04;5.50;;;2.00;;
63259;SDS011;49390;51.380;0.098;2023-08-30T11:28:33;4.07;;;2.10;;
63259;SDS011;49390;51.380;0.098;2023-08-30T11:31:01;4.90;;;2.03;;
63259;SDS011;49390;51.380;0.098;2023-08-30T11:33:29;5.05;;;2.20;;
63259;SDS011;49390;51.380;0.098;2023-08-30T11:35:57;4.32;;;1.92;;
63259;SDS011;49390;51.380;0.098;2023-08-30T11:38:26;4.32;;;2.00;;
63259;SDS011;49390;51.380;0.098;2023-08-30T11:40:58;5.30;;;1.98;;
63259;SDS011;49390;51.380;0.098;2023-08-30T11:43:27;3.25;;;1.70;;
63259;SDS011;49390;51.380;0.098;2023-08-30T11:45:56;5.00;;;1.90;;
63259;SDS011;49390;51.380;0.098;2023-08-30T11:48:25;4.40;;;2.15;;
63259;SDS011;49390;51.380;0.098;2023-08-30T11:50:53;4.38;;;2.10;;
63259;SDS011;49390;51.380;0.098;2023-08-30T11:53:22;3.38;;;1.70;;
63259;SDS011;49390;51.380;0.098;2023-08-30T11:55:51;5.38;;;2.10;;
63259;SDS011;49390;51.380;0.098;2023-08-30T11:58:22;4.28;;;1.80;;
63259;SDS011;49390;51.380;0.098;2023-08-30T12:01:11;4.97;;;2.00;;
63259;SDS011;49390;51.380;0.098;2023-08-30T12:03:41;4.53;;;2.10;;
63259;SDS011;49390;51.380;0.098;2023-08-30T12:06:10;4.32;;;1.75;;
63259;SDS011;49390;51.380;0.098;2023-08-30T12:08:42;3.38;;;1.98;;
63259;SDS011;49390;51.380;0.098;2023-08-30T12:11:17;4.25;;;1.90;;
63259;SDS011;49390;51.380;0.098;2023-08-30T12:13:47;3.22;;;1.90;;
63259;SDS011;49390;51.380;0.098;2023-08-30T12:16:18;3.55;;;1.60;;
63259;SDS011;49390;51.380;0.098;2023-08-30T12:18:48;2.80;;;1.60;;
63259;SDS011;49390;51.380;0.098;2023-08-30T12:21:16;3.17;;;1.63;;
63259;SDS011;49390;51.380;0.098;2023-08-30T12:23:44;14.93;;;2.70;;
63259;SDS011;49390;51.380;0.098;2023-08-30T12:26:12;4.40;;;1.70;;
63259;SDS011;49390;51.380;0.098;2023-08-30T12:28:41;3.78;;;1.60;;
63259;SDS011;49390;51.380;0.098;2023-08-30T12:31:11;3.40;;;1.63;;
63259;SDS011;49390;51.380;0.098;2023-08-30T12:33:40;4.95;;;1.85;;
63259;SDS011;49390;51.380;0.098;2023-08-30T12:36:08;3.28;;;1.90;;
63259;SDS011;49390;51.380;0.098;2023-08-30T12:54:38;1.67;;;1.30;;
63259;SDS011;49390;51.380;0.098;2023-08-30T12:57:06;3.58;;;1.60;;
63259;SDS011;49390;51.380;0.098;2023-08-30T12:59:34;3.20;;;1.67;;
63259;SDS011;49390;51.380;0.098;2023-08-30T13:02:02;3.40;;;1.80;;
63259;SDS011;49390;51.380;0.098;2023-08-30T13:04:31;2.38;;;1.60;;
63259;SDS011;49390;51.380;0.098;2023-08-30T13:06:59;3.17;;;1.60;;
63259;SDS011;49390;51.380;0.098;2023-08-30T13:09:27;2.67;;;1.75;;
63259;SDS011;49390;51.380;0.098;2023-08-30T13:11:55;2.33;;;1.70;;
63259;SDS011;49390;51.380;0.098;2023-08-30T13:14:25;3.73;;;1.80;;
63259;SDS011;49390;51.380;0.098;2023-08-30T13:16:55;2.97;;;1.70;;
63259;SDS011;49390;51.380;0.098;2023-08-30T13:19:23;2.92;;;1.60;;
63259;SDS011;49390;51.380;0.098;2023-08-30T13:21:51;3.45;;;1.60;;
63259;SDS011;49390;51.380;0.098;2023-08-30T13:24:19;4.05;;;1.83;;
63259;SDS011;49390;51.380;0.098;2023-08-30T13:26:47;6.45;;;1.88;;
63259;SDS011;49390;51.380;0.098;2023-08-30T13:29:18;4.93;;;1.92;;
63259;SDS011;49390;51.380;0.098;2023-08-30T13:31:46;3.78;;;1.85;;
63259;SDS011;49390;51.380;0.098;2023-08-30T13:34:14;3.17;;;1.83;;
63259;SDS011;49390;51.380;0.098;2023-08-30T13:36:42;5.30;;;2.00;;
63259;SDS011;49390;51.380;0.098;2023-08-30T13:39:11;3.38;;;1.60;;
63259;SDS011;49390;51.380;0.098;2023-08-30T13:41:39;3.53;;;1.98;;
63259;SDS011;49390;51.380;0.098;2023-08-30T13:44:07;3.97;;;1.80;;
63259;SDS011;49390;51.380;0.098;2023-08-30T13:46:34;4.47;;;1.80;;
63259;SDS011;49390;51.380;0.098;2023-08-30T13:49:03;3.47;;;1.70;;
63259;SDS011;49390;51.380;0.098;2023-08-30T13:51:31;3.55;;;1.67;;
63259;SDS011;49390;51.380;0.098;2023-08-30T13:54:00;4.10;;;1.80;;
63259;SDS011;49390;51.380;0.098;2023-08-30T13:56:28;4.75;;;1.90;;
63259;SDS011;49390;51.380;0.098;2023-08-30T13:58:58;3.67;;;1.90;;
63259;SDS011;49390;51.380;0.098;2023-08-30T14:01:26;3.50;;;1.58;;
63259;SDS011;49390;51.380;0.098;2023-08-30T14:03:54;3.30;;;1.70;;
63259;SDS011;49390;51.380;0.098;2023-08-30T14:06:22;3.88;;;1.73;;
63259;SDS011;49390;51.380;0.098;2023-08-30T14:08:50;3.63;;;1.80;;
63259;SDS011;49390;51.380;0.098;2023-08-30T14:11:18;5.18;;;2.00;;
63259;SDS011;49390;51.380;0.098;2023-08-30T14:13:47;5.40;;;1.80;;
63259;SDS011;49390;51.380;0.098;2023-08-30T14:16:15;3.65;;;1.73;;
63259;SDS011;49390;51.380;0.098;2023-08-30T14:18:43;4.13;;;1.90;;
63259;SDS011;49390;51.380;0.098;2023-08-30T14:21:11;4.22;;;1.75;;
63259;SDS011;49390;51.380;0.098;2023-08-30T14:23:40;4.63;;;1.80;;
63259;SDS011;49390;51.380;0.098;2023-08-30T14:26:09;5.32;;;2.10;;
63259;SDS011;49390;51.380;0.098;2023-08-30T14:28:37;4.07;;;1.70;;
63259;SDS011;49390;51.380;0.098;2023-08-30T14:31:07;4.18;;;1.77;;
63259;SDS011;49390;51.380;0.098;2023-08-30T14:33:41;2.97;;;1.70;;
63259;SDS011;49390;51.380;0.098;2023-08-30T14:36:12;3.60;;;1.80;;
63259;SDS011;49390;51.380;0.098;2023-08-30T14:38:42;4.30;;;1.80;;
63259;SDS011;49390;51.380;0.098;2023-08-30T14:41:09;4.40;;;1.60;;
63259;SDS011;49390;51.380;0.098;2023-08-30T14:43:38;4.78;;;1.60;;
63259;SDS011;49390;51.380;0.098;2023-08-30T14:46:06;3.05;;;1.52;;
63259;SDS011;49390;51.380;0.098;2023-08-30T14:48:39;4.40;;;1.80;;
63259;SDS011;49390;51.380;0.098;2023-08-30T14:51:10;4.00;;;1.60;;
63259;SDS011;49390;51.380;0.098;2023-08-30T14:53:41;3.25;;;1.60;;
63259;SDS011;49390;51.380;0.098;2023-08-30T14:56:36;2.92;;;1.80;;
63259;SDS011;49390;51.380;0.098;2023-08-30T14:59:04;2.97;;;1.70;;
63259;SDS011;49390;51.380;0.098;2023-08-30T15:01:34;3.33;;;1.88;;
63259;SDS011;49390;51.380;0.098;2023-08-30T15:04:05;3.72;;;1.73;;
63259;SDS011;49390;51.380;0.098;2023-08-30T15:06:36;2.45;;;1.70;;
63259;SDS011;49390;51.380;0.098;2023-08-30T15:32:14;4.30;;;1.58;;
63259;SDS011;49390;51.380;0.098;2023-08-30T15:34:43;3.47;;;1.60;;
63259;SDS011;49390;51.380;0.098;2023-08-30T15:37:11;5.40;;;1.70;;
63259;SDS011;49390;51.380;0.098;2023-08-30T15:39:40;4.13;;;1.70;;
63259;SDS011;49390;51.380;0.098;2023-08-30T15:42:09;3.70;;;1.75;;
63259;SDS011;49390;51.380;0.098;2023-08-30T15:44:37;2.50;;;1.65;;
63259;SDS011;49390;51.380;0.098;2023-08-30T15:47:05;2.53;;;1.60;;
63259;SDS011;49390;51.380;0.098;2023-08-30T15:49:34;4.53;;;1.55;;
63259;SDS011;49390;51.380;0.098;2023-08-30T15:52:06;3.75;;;1.63;;
63259;SDS011;49390;51.380;0.098;2023-08-30T15:54:35;3.55;;;2.00;;
63259;SDS011;49390;51.380;0.098;2023-08-30T15:57:03;3.72;;;1.80;;
63259;SDS011;49390;51.380;0.098;2023-08-30T15:59:31;5.22;;;2.08;;
63259;SDS011;49390;51.380;0.098;2023-08-30T16:01:59;7.43;;;1.95;;
63259;SDS011;49390;51.380;0.098;2023-08-30T16:04:29;6.15;;;1.70;;